sensor_id;sensor_type;location;lat;lon;timestamp;P1;durP1;ratioP1;P2;durP2;ratioP2
47513;SDS011;33951;51.988;5.910;2023-09-07T04:02:08;6.72;;;6.05;;
47513;SDS011;33951;51.988;5.910;2023-09-07T04:04:56;6.05;;;5.45;;
47513;SDS011;33951;51.988;5.910;2023-09-07T04:07:53;6.15;;;5.55;;
47513;SDS011;33951;51.988;5.910;2023-09-07T04:11:06;6.75;;;5.55;;
47513;SDS011;33951;51.988;5.910;2023-09-07T04:13:56;7.75;;;6.03;;
47513;SDS011;33951;51.988;5.910;2023-09-07T04:16:53;6.07;;;5.43;;
47513;SDS011;33951;51.988;5.910;2023-09-07T04:19:36;6.75;;;6.15;;
47513;SDS011;33951;51.988;5.910;2023-09-07T04:25:10;7.28;;;6.53;;
47513;SDS011;33951;51.988;5.910;2023-09-07T04:27:53;8.88;;;6.03;;
47513;SDS011;33951;51.988;5.910;2023-09-07T04:30:50;8.00;;;5.57;;
47513;SDS011;33951;51.988;5.910;2023-09-07T04:33:54;8.60;;;6.50;;
47513;SDS011;33951;51.988;5.910;2023-09-07T04:36:58;9.05;;;5.72;;
47513;SDS011;33951;51.988;5.910;2023-09-07T04:39:40;7.50;;;6.10;;
47513;SDS011;33951;51.988;5.910;2023-09-07T04:42:29;7.13;;;6.43;;
47513;SDS011;33951;51.988;5.910;2023-09-07T04:45:36;9.05;;;6.55;;
47513;SDS011;33951;51.988;5.910;2023-09-07T04:48:15;6.75;;;6.10;;
47513;SDS011;33951;51.988;5.910;2023-09-07T04:54:40;7.53;;;6.78;;
47513;SDS011;33951;51.988;5.910;2023-09-07T04:59:55;8.20;;;7.20;;
47513;SDS011;33951;51.988;5.910;2023-09-07T05:06:07;7.80;;;7.00;;
47513;SDS011;33951;51.988;5.910;2023-09-07T05:09:02;8.85;;;7.45;;
47513;SDS011;33951;51.988;5.910;2023-09-07T05:12:17;8.07;;;6.70;;
47513;SDS011;33951;51.988;5.910;2023-09-07T05:15:00;7.85;;;6.82;;
47513;SDS011;33951;51.988;5.910;2023-09-07T05:17:26;8.52;;;6.93;;
47513;SDS011;33951;51.988;5.910;2023-09-07T05:19:54;7.90;;;6.40;;
47513;SDS011;33951;51.988;5.910;2023-09-07T05:22:23;9.77;;;7.20;;
47513;SDS011;33951;51.988;5.910;2023-09-07T05:24:51;14.95;;;7.45;;
47513;SDS011;33951;51.988;5.910;2023-09-07T05:27:25;7.28;;;6.53;;
47513;SDS011;33951;51.988;5.910;2023-09-07T05:29:53;9.43;;;6.88;;
47513;SDS011;33951;51.988;5.910;2023-09-07T05:32:28;8.95;;;6.90;;
47513;SDS011;33951;51.988;5.910;2023-09-07T05:35:00;9.15;;;7.30;;
47513;SDS011;33951;51.988;5.910;2023-09-07T05:37:29;9.77;;;7.13;;
47513;SDS011;33951;51.988;5.910;2023-09-07T05:40:21;8.07;;;6.25;;
47513;SDS011;33951;51.988;5.910;2023-09-07T05:42:49;10.73;;;6.88;;
47513;SDS011;33951;51.988;5.910;2023-09-07T05:45:18;10.10;;;6.90;;
47513;SDS011;33951;51.988;5.910;2023-09-07T05:47:44;9.85;;;6.30;;
47513;SDS011;33951;51.988;5.910;2023-09-07T05:50:36;9.65;;;7.00;;
47513;SDS011;33951;51.988;5.910;2023-09-07T05:56:34;10.68;;;7.22;;
47513;SDS011;33951;51.988;5.910;2023-09-07T06:01:46;9.52;;;7.10;;
47513;SDS011;33951;51.988;5.910;2023-09-07T06:10:36;7.50;;;6.68;;
47513;SDS011;33951;51.988;5.910;2023-09-07T06:13:04;8.65;;;6.95;;
47513;SDS011;33951;51.988;5.910;2023-09-07T06:19:29;8.48;;;7.57;;
47513;SDS011;33951;51.988;5.910;2023-09-07T06:35:10;8.85;;;7.32;;
47513;SDS011;33951;51.988;5.910;2023-09-07T06:38:12;9.82;;;7.90;;
47513;SDS011;33951;51.988;5.910;2023-09-07T06:40:51;8.23;;;7.43;;
47513;SDS011;33951;51.988;5.910;2023-09-07T06:43:37;10.57;;;7.65;;
47513;SDS011;33951;51.988;5.910;2023-09-07T06:46:12;12.68;;;8.02;;
47513;SDS011;33951;51.988;5.910;2023-09-07T07:53:12;8.27;;;6.93;;
47513;SDS011;33951;51.988;5.910;2023-09-07T07:56:18;9.07;;;6.95;;
47513;SDS011;33951;51.988;5.910;2023-09-07T10:06:34;6.25;;;4.80;;
47513;SDS011;33951;51.988;5.910;2023-09-07T10:09:11;6.53;;;3.90;;
47513;SDS011;33951;51.988;5.910;2023-09-07T10:11:50;4.25;;;3.72;;
47513;SDS011;33951;51.988;5.910;2023-09-07T10:14:22;7.22;;;3.92;;
47513;SDS011;33951;51.988;5.910;2023-09-07T10:16:56;7.25;;;4.13;;
47513;SDS011;33951;51.988;5.910;2023-09-07T10:19:28;7.32;;;4.15;;
47513;SDS011;33951;51.988;5.910;2023-09-07T10:21:54;8.15;;;3.80;;
47513;SDS011;33951;51.988;5.910;2023-09-07T10:24:28;4.25;;;3.83;;
47513;SDS011;33951;51.988;5.910;2023-09-07T10:27:05;8.73;;;4.40;;
47513;SDS011;33951;51.988;5.910;2023-09-07T10:29:42;6.28;;;4.97;;
47513;SDS011;33951;51.988;5.910;2023-09-07T10:32:34;9.15;;;4.50;;
47513;SDS011;33951;51.988;5.910;2023-09-07T10:35:15;6.50;;;4.88;;
47513;SDS011;33951;51.988;5.910;2023-09-07T10:37:47;5.90;;;4.63;;
47513;SDS011;33951;51.988;5.910;2023-09-07T10:40:22;7.47;;;3.88;;
47513;SDS011;33951;51.988;5.910;2023-09-07T10:43:01;5.20;;;4.20;;
47513;SDS011;33951;51.988;5.910;2023-09-07T10:45:30;8.32;;;4.57;;
47513;SDS011;33951;51.988;5.910;2023-09-07T10:48:19;8.32;;;4.68;;
47513;SDS011;33951;51.988;5.910;2023-09-07T10:50:56;4.22;;;3.30;;
47513;SDS011;33951;51.988;5.910;2023-09-07T10:53:31;5.20;;;4.28;;
47513;SDS011;33951;51.988;5.910;2023-09-07T10:56:10;6.13;;;4.28;;
47513;SDS011;33951;51.988;5.910;2023-09-07T11:01:23;5.82;;;3.78;;
47513;SDS011;33951;51.988;5.910;2023-09-07T11:04:08;6.07;;;4.13;;
47513;SDS011;33951;51.988;5.910;2023-09-07T11:06:39;7.03;;;4.00;;
47513;SDS011;33951;51.988;5.910;2023-09-07T11:09:09;8.50;;;3.92;;
47513;SDS011;33951;51.988;5.910;2023-09-07T11:11:45;5.93;;;3.78;;
47513;SDS011;33951;51.988;5.910;2023-09-07T11:14:45;6.07;;;3.85;;
47513;SDS011;33951;51.988;5.910;2023-09-07T11:17:16;8.20;;;3.90;;
47513;SDS011;33951;51.988;5.910;2023-09-07T11:19:49;6.40;;;3.63;;
47513;SDS011;33951;51.988;5.910;2023-09-07T11:22:17;5.15;;;3.47;;
47513;SDS011;33951;51.988;5.910;2023-09-07T11:24:44;5.65;;;3.65;;
47513;SDS011;33951;51.988;5.910;2023-09-07T11:27:29;5.97;;;3.58;;
47513;SDS011;33951;51.988;5.910;2023-09-07T11:29:55;5.53;;;3.17;;
47513;SDS011;33951;51.988;5.910;2023-09-07T11:32:32;4.57;;;3.90;;
47513;SDS011;33951;51.988;5.910;2023-09-07T11:35:02;4.20;;;3.72;;
47513;SDS011;33951;51.988;5.910;2023-09-07T11:37:34;5.05;;;3.53;;
47513;SDS011;33951;51.988;5.910;2023-09-07T11:40:00;4.03;;;3.35;;
47513;SDS011;33951;51.988;5.910;2023-09-07T11:47:42;4.50;;;3.60;;
47513;SDS011;33951;51.988;5.910;2023-09-07T11:50:16;7.00;;;3.22;;
47513;SDS011;33951;51.988;5.910;2023-09-07T11:52:53;6.80;;;3.92;;
47513;SDS011;33951;51.988;5.910;2023-09-07T11:55:26;3.75;;;3.08;;
47513;SDS011;33951;51.988;5.910;2023-09-07T11:58:10;8.70;;;3.60;;
47513;SDS011;33951;51.988;5.910;2023-09-07T12:00:45;3.97;;;3.58;;
47513;SDS011;33951;51.988;5.910;2023-09-07T12:03:26;5.45;;;3.58;;
47513;SDS011;33951;51.988;5.910;2023-09-07T12:06:06;4.63;;;3.55;;
47513;SDS011;33951;51.988;5.910;2023-09-07T12:09:04;3.95;;;3.65;;
47513;SDS011;33951;51.988;5.910;2023-09-07T12:11:45;7.18;;;3.55;;
47513;SDS011;33951;51.988;5.910;2023-09-07T12:14:13;3.97;;;3.28;;
47513;SDS011;33951;51.988;5.910;2023-09-07T12:16:41;4.95;;;3.28;;
47513;SDS011;33951;51.988;5.910;2023-09-07T12:19:13;5.13;;;3.63;;
47513;SDS011;33951;51.988;5.910;2023-09-07T12:21:42;11.75;;;3.85;;
47513;SDS011;33951;51.988;5.910;2023-09-07T12:24:08;6.82;;;3.20;;
47513;SDS011;33951;51.988;5.910;2023-09-07T12:26:44;6.63;;;3.47;;
47513;SDS011;33951;51.988;5.910;2023-09-07T12:29:15;5.72;;;3.90;;
47513;SDS011;33951;51.988;5.910;2023-09-07T12:31:48;4.80;;;3.65;;
47513;SDS011;33951;51.988;5.910;2023-09-07T12:34:37;4.95;;;3.65;;
47513;SDS011;33951;51.988;5.910;2023-09-07T12:43:05;4.05;;;3.30;;
47513;SDS011;33951;51.988;5.910;2023-09-07T12:45:32;7.97;;;6.03;;
47513;SDS011;33951;51.988;5.910;2023-09-07T12:48:04;4.93;;;3.67;;
47513;SDS011;33951;51.988;5.910;2023-09-07T12:50:49;4.07;;;3.67;;
47513;SDS011;33951;51.988;5.910;2023-09-07T12:53:44;4.05;;;3.67;;
47513;SDS011;33951;51.988;5.910;2023-09-07T12:56:20;4.10;;;3.60;;
47513;SDS011;33951;51.988;5.910;2023-09-07T12:58:46;6.38;;;3.78;;
47513;SDS011;33951;51.988;5.910;2023-09-07T13:01:12;4.97;;;3.80;;
47513;SDS011;33951;51.988;5.910;2023-09-07T13:03:43;7.88;;;3.92;;
47513;SDS011;33951;51.988;5.910;2023-09-07T13:06:12;6.15;;;3.80;;
47513;SDS011;33951;51.988;5.910;2023-09-07T13:08:37;4.28;;;3.88;;
47513;SDS011;33951;51.988;5.910;2023-09-07T13:11:12;5.30;;;3.80;;
47513;SDS011;33951;51.988;5.910;2023-09-07T13:18:15;10.97;;;4.10;;
47513;SDS011;33951;51.988;5.910;2023-09-07T13:21:37;4.55;;;3.88;;
47513;SDS011;33951;51.988;5.910;2023-09-07T13:27:44;4.80;;;3.55;;
47513;SDS011;33951;51.988;5.910;2023-09-07T13:31:00;4.25;;;3.85;;
47513;SDS011;33951;51.988;5.910;2023-09-07T13:43:19;6.28;;;3.90;;
47513;SDS011;33951;51.988;5.910;2023-09-07T13:46:24;5.28;;;3.45;;
47513;SDS011;33951;51.988;5.910;2023-09-07T13:49:17;4.55;;;3.90;;
47513;SDS011;33951;51.988;5.910;2023-09-07T14:18:47;5.07;;;3.85;;
47513;SDS011;33951;51.988;5.910;2023-09-07T14:22:09;5.68;;;3.83;;
47513;SDS011;33951;51.988;5.910;2023-09-07T14:25:25;5.07;;;4.57;;
47513;SDS011;33951;51.988;5.910;2023-09-07T14:42:02;6.80;;;4.00;;
47513;SDS011;33951;51.988;5.910;2023-09-07T14:59:11;6.72;;;4.55;;
47513;SDS011;33951;51.988;5.910;2023-09-07T15:09:12;7.72;;;4.93;;
47513;SDS011;33951;51.988;5.910;2023-09-07T15:35:35;7.85;;;4.72;;
47513;SDS011;33951;51.988;5.910;2023-09-07T15:38:01;9.60;;;4.50;;
47513;SDS011;33951;51.988;5.910;2023-09-07T15:40:27;8.70;;;5.50;;
47513;SDS011;33951;51.988;5.910;2023-09-07T15:42:58;7.78;;;5.38;;
47513;SDS011;33951;51.988;5.910;2023-09-07T15:45:26;6.22;;;4.13;;
47513;SDS011;33951;51.988;5.910;2023-09-07T15:47:54;8.98;;;4.65;;
47513;SDS011;33951;51.988;5.910;2023-09-07T15:50:19;9.73;;;4.80;;
47513;SDS011;33951;51.988;5.910;2023-09-07T15:52:45;6.65;;;4.75;;
47513;SDS011;33951;51.988;5.910;2023-09-07T15:55:13;5.63;;;4.00;;
47513;SDS011;33951;51.988;5.910;2023-09-07T15:57:40;6.30;;;4.10;;
47513;SDS011;33951;51.988;5.910;2023-09-07T16:07:52;6.57;;;4.32;;
47513;SDS011;33951;51.988;5.910;2023-09-07T16:10:18;5.38;;;4.75;;
47513;SDS011;33951;51.988;5.910;2023-09-07T16:12:43;8.00;;;5.03;;
47513;SDS011;33951;51.988;5.910;2023-09-07T16:15:09;6.88;;;4.13;;
47513;SDS011;33951;51.988;5.910;2023-09-07T16:17:38;6.18;;;4.30;;
47513;SDS011;33951;51.988;5.910;2023-09-07T16:20:06;5.72;;;4.78;;
47513;SDS011;33951;51.988;5.910;2023-09-07T16:22:37;7.28;;;4.93;;
47513;SDS011;33951;51.988;5.910;2023-09-07T16:25:05;5.10;;;4.60;;
47513;SDS011;33951;51.988;5.910;2023-09-07T16:27:31;5.07;;;4.57;;
47513;SDS011;33951;51.988;5.910;2023-09-07T16:30:08;5.40;;;4.22;;
47513;SDS011;33951;51.988;5.910;2023-09-07T16:32:34;7.15;;;4.65;;
47513;SDS011;33951;51.988;5.910;2023-09-07T16:54:57;7.00;;;5.10;;
47513;SDS011;33951;51.988;5.910;2023-09-07T16:57:58;5.03;;;4.32;;
47513;SDS011;33951;51.988;5.910;2023-09-07T17:00:48;7.07;;;4.88;;
47513;SDS011;33951;51.988;5.910;2023-09-07T17:10:49;5.68;;;4.60;;
47513;SDS011;33951;51.988;5.910;2023-09-07T17:13:18;5.18;;;4.53;;
47513;SDS011;33951;51.988;5.910;2023-09-07T17:15:49;7.73;;;5.23;;
47513;SDS011;33951;51.988;5.910;2023-09-07T17:18:16;11.90;;;7.90;;
47513;SDS011;33951;51.988;5.910;2023-09-07T17:24:33;11.68;;;8.98;;
47513;SDS011;33951;51.988;5.910;2023-09-07T17:30:37;13.93;;;8.65;;
47513;SDS011;33951;51.988;5.910;2023-09-07T17:33:03;9.98;;;7.75;;
47513;SDS011;33951;51.988;5.910;2023-09-07T17:35:48;7.07;;;5.68;;
47513;SDS011;33951;51.988;5.910;2023-09-07T17:38:28;6.25;;;5.63;;
47513;SDS011;33951;51.988;5.910;2023-09-07T17:41:55;6.00;;;5.07;;
47513;SDS011;33951;51.988;5.910;2023-09-07T17:44:56;5.82;;;4.85;;
47513;SDS011;33951;51.988;5.910;2023-09-07T17:47:27;6.43;;;4.85;;
47513;SDS011;33951;51.988;5.910;2023-09-07T17:49:52;7.88;;;5.60;;
47513;SDS011;33951;51.988;5.910;2023-09-07T17:52:58;5.72;;;5.15;;
47513;SDS011;33951;51.988;5.910;2023-09-07T17:55:36;6.00;;;5.40;;
47513;SDS011;33951;51.988;5.910;2023-09-07T17:58:03;6.38;;;5.75;;
47513;SDS011;33951;51.988;5.910;2023-09-07T18:00:36;6.50;;;5.18;;
47513;SDS011;33951;51.988;5.910;2023-09-07T18:03:07;5.80;;;4.85;;
47513;SDS011;33951;51.988;5.910;2023-09-07T18:05:38;6.55;;;4.55;;
47513;SDS011;33951;51.988;5.910;2023-09-07T18:08:04;5.27;;;4.77;;
47513;SDS011;33951;51.988;5.910;2023-09-07T18:14:26;6.47;;;5.00;;
47513;SDS011;33951;51.988;5.910;2023-09-07T18:21:13;5.75;;;4.80;;
47513;SDS011;33951;51.988;5.910;2023-09-07T18:23:49;4.95;;;4.45;;
47513;SDS011;33951;51.988;5.910;2023-09-07T18:26:20;5.68;;;5.07;;
47513;SDS011;33951;51.988;5.910;2023-09-07T18:31:45;9.73;;;5.75;;
47513;SDS011;33951;51.988;5.910;2023-09-07T18:34:19;5.22;;;4.63;;
47513;SDS011;33951;51.988;5.910;2023-09-07T18:40:14;8.27;;;5.25;;
47513;SDS011;33951;51.988;5.910;2023-09-07T18:42:43;8.30;;;5.18;;
47513;SDS011;33951;51.988;5.910;2023-09-07T18:45:12;8.23;;;5.03;;
47513;SDS011;33951;51.988;5.910;2023-09-07T18:47:37;7.63;;;5.05;;
47513;SDS011;33951;51.988;5.910;2023-09-07T18:50:06;10.30;;;5.10;;
47513;SDS011;33951;51.988;5.910;2023-09-07T18:52:33;6.88;;;5.43;;
47513;SDS011;33951;51.988;5.910;2023-09-07T18:55:01;8.38;;;5.47;;
47513;SDS011;33951;51.988;5.910;2023-09-07T18:57:30;4.85;;;4.45;;
47513;SDS011;33951;51.988;5.910;2023-09-07T18:59:56;6.20;;;4.93;;
47513;SDS011;33951;51.988;5.910;2023-09-07T19:02:24;9.02;;;5.22;;
47513;SDS011;33951;51.988;5.910;2023-09-07T19:04:51;7.55;;;5.40;;
47513;SDS011;33951;51.988;5.910;2023-09-07T19:07:17;5.30;;;4.80;;
47513;SDS011;33951;51.988;5.910;2023-09-07T19:09:47;10.95;;;7.93;;
47513;SDS011;33951;51.988;5.910;2023-09-07T19:12:13;18.80;;;13.23;;
47513;SDS011;33951;51.988;5.910;2023-09-07T19:14:42;19.77;;;13.52;;
47513;SDS011;33951;51.988;5.910;2023-09-07T19:17:08;25.40;;;17.45;;
47513;SDS011;33951;51.988;5.910;2023-09-07T19:19:35;26.65;;;14.68;;
47513;SDS011;33951;51.988;5.910;2023-09-07T19:22:04;13.30;;;9.73;;
47513;SDS011;33951;51.988;5.910;2023-09-07T19:24:38;10.35;;;7.63;;
47513;SDS011;33951;51.988;5.910;2023-09-07T19:27:04;9.75;;;6.15;;
47513;SDS011;33951;51.988;5.910;2023-09-07T19:29:30;8.07;;;5.85;;
47513;SDS011;33951;51.988;5.910;2023-09-07T19:31:55;6.88;;;5.32;;
47513;SDS011;33951;51.988;5.910;2023-09-07T19:34:21;6.45;;;5.47;;
47513;SDS011;33951;51.988;5.910;2023-09-07T19:36:47;8.20;;;5.55;;
47513;SDS011;33951;51.988;5.910;2023-09-07T19:39:13;7.97;;;5.43;;
47513;SDS011;33951;51.988;5.910;2023-09-07T19:41:40;7.28;;;5.38;;
47513;SDS011;33951;51.988;5.910;2023-09-07T19:44:05;6.05;;;5.32;;
47513;SDS011;33951;51.988;5.910;2023-09-07T19:46:32;7.00;;;5.15;;
47513;SDS011;33951;51.988;5.910;2023-09-07T19:48:58;6.28;;;5.10;;
47513;SDS011;33951;51.988;5.910;2023-09-07T19:51:23;7.32;;;5.65;;
47513;SDS011;33951;51.988;5.910;2023-09-07T19:53:52;9.57;;;5.47;;
47513;SDS011;33951;51.988;5.910;2023-09-07T19:56:20;6.20;;;5.28;;
47513;SDS011;33951;51.988;5.910;2023-09-07T19:58:49;8.60;;;5.25;;
47513;SDS011;33951;51.988;5.910;2023-09-07T20:01:18;7.28;;;5.10;;
47513;SDS011;33951;51.988;5.910;2023-09-07T20:03:45;6.20;;;5.05;;
47513;SDS011;33951;51.988;5.910;2023-09-07T20:06:17;7.63;;;4.55;;
47513;SDS011;33951;51.988;5.910;2023-09-07T20:08:55;6.93;;;5.05;;
47513;SDS011;33951;51.988;5.910;2023-09-07T20:11:25;7.32;;;5.22;;
47513;SDS011;33951;51.988;5.910;2023-09-07T20:13:53;8.10;;;5.30;;
47513;SDS011;33951;51.988;5.910;2023-09-07T20:16:34;6.22;;;5.25;;
47513;SDS011;33951;51.988;5.910;2023-09-07T20:18:59;7.35;;;5.75;;
47513;SDS011;33951;51.988;5.910;2023-09-07T20:21:28;9.18;;;5.47;;
47513;SDS011;33951;51.988;5.910;2023-09-07T20:23:57;9.55;;;6.07;;
47513;SDS011;33951;51.988;5.910;2023-09-07T20:26:26;6.97;;;6.07;;
47513;SDS011;33951;51.988;5.910;2023-09-07T20:28:52;8.00;;;4.97;;
47513;SDS011;33951;51.988;5.910;2023-09-07T20:31:24;7.15;;;4.93;;
47513;SDS011;33951;51.988;5.910;2023-09-07T20:37:07;9.90;;;6.93;;
47513;SDS011;33951;51.988;5.910;2023-09-07T20:39:33;9.02;;;7.43;;
47513;SDS011;33951;51.988;5.910;2023-09-07T20:41:59;6.55;;;5.80;;
47513;SDS011;33951;51.988;5.910;2023-09-07T20:44:26;6.55;;;5.38;;
47513;SDS011;33951;51.988;5.910;2023-09-07T20:46:52;9.45;;;5.68;;
47513;SDS011;33951;51.988;5.910;2023-09-07T20:49:19;9.25;;;7.47;;
47513;SDS011;33951;51.988;5.910;2023-09-07T20:51:46;8.05;;;6.35;;
47513;SDS011;33951;51.988;5.910;2023-09-07T20:54:12;10.30;;;5.88;;
47513;SDS011;33951;51.988;5.910;2023-09-07T20:56:40;7.95;;;6.20;;
47513;SDS011;33951;51.988;5.910;2023-09-07T20:59:05;7.82;;;6.57;;
47513;SDS011;33951;51.988;5.910;2023-09-07T21:01:31;9.73;;;6.00;;
47513;SDS011;33951;51.988;5.910;2023-09-07T21:03:57;7.35;;;5.47;;
47513;SDS011;33951;51.988;5.910;2023-09-07T21:06:23;8.07;;;5.38;;
47513;SDS011;33951;51.988;5.910;2023-09-07T21:08:48;7.20;;;5.70;;
47513;SDS011;33951;51.988;5.910;2023-09-07T21:11:14;6.35;;;4.70;;
47513;SDS011;33951;51.988;5.910;2023-09-07T21:13:40;7.75;;;5.30;;
47513;SDS011;33951;51.988;5.910;2023-09-07T21:16:08;6.53;;;5.15;;
47513;SDS011;33951;51.988;5.910;2023-09-07T21:18:34;5.63;;;4.97;;
47513;SDS011;33951;51.988;5.910;2023-09-07T21:20:59;7.30;;;4.75;;
47513;SDS011;33951;51.988;5.910;2023-09-07T21:23:25;8.68;;;6.28;;
47513;SDS011;33951;51.988;5.910;2023-09-07T21:25:51;6.55;;;5.65;;
47513;SDS011;33951;51.988;5.910;2023-09-07T21:28:17;9.40;;;5.75;;
47513;SDS011;33951;51.988;5.910;2023-09-07T21:30:42;8.60;;;6.30;;
47513;SDS011;33951;51.988;5.910;2023-09-07T21:33:08;6.60;;;5.82;;
47513;SDS011;33951;51.988;5.910;2023-09-07T21:35:34;9.65;;;6.25;;
47513;SDS011;33951;51.988;5.910;2023-09-07T21:38:00;12.23;;;9.00;;
47513;SDS011;33951;51.988;5.910;2023-09-07T21:40:26;14.27;;;11.27;;
47513;SDS011;33951;51.988;5.910;2023-09-07T21:42:52;14.82;;;10.68;;
47513;SDS011;33951;51.988;5.910;2023-09-07T21:45:17;26.13;;;18.55;;
47513;SDS011;33951;51.988;5.910;2023-09-07T21:47:43;29.13;;;18.98;;
47513;SDS011;33951;51.988;5.910;2023-09-07T21:50:09;19.70;;;13.23;;
47513;SDS011;33951;51.988;5.910;2023-09-07T21:52:38;12.55;;;8.80;;
47513;SDS011;33951;51.988;5.910;2023-09-07T21:55:04;8.77;;;7.23;;
47513;SDS011;33951;51.988;5.910;2023-09-07T21:57:29;7.18;;;6.22;;
47513;SDS011;33951;51.988;5.910;2023-09-07T21:59:55;9.65;;;6.00;;
47513;SDS011;33951;51.988;5.910;2023-09-07T22:02:21;7.90;;;6.70;;
47513;SDS011;33951;51.988;5.910;2023-09-07T22:04:48;8.77;;;6.05;;
47513;SDS011;33951;51.988;5.910;2023-09-07T22:07:15;8.27;;;5.88;;
47513;SDS011;33951;51.988;5.910;2023-09-07T22:09:41;8.45;;;5.70;;
47513;SDS011;33951;51.988;5.910;2023-09-07T22:12:07;7.90;;;5.93;;
47513;SDS011;33951;51.988;5.910;2023-09-07T22:14:32;11.00;;;5.82;;
47513;SDS011;33951;51.988;5.910;2023-09-07T22:17:01;6.35;;;5.65;;
47513;SDS011;33951;51.988;5.910;2023-09-07T22:19:27;9.40;;;6.38;;
47513;SDS011;33951;51.988;5.910;2023-09-07T22:21:53;10.95;;;6.38;;
47513;SDS011;33951;51.988;5.910;2023-09-07T22:24:19;7.47;;;5.78;;
47513;SDS011;33951;51.988;5.910;2023-09-07T22:26:44;8.00;;;7.05;;
47513;SDS011;33951;51.988;5.910;2023-09-07T22:29:10;8.05;;;6.10;;
47513;SDS011;33951;51.988;5.910;2023-09-07T22:31:36;8.65;;;6.57;;
47513;SDS011;33951;51.988;5.910;2023-09-07T22:34:10;7.40;;;6.50;;
47513;SDS011;33951;51.988;5.910;2023-09-07T22:36:35;7.85;;;6.40;;
47513;SDS011;33951;51.988;5.910;2023-09-07T22:39:01;9.43;;;6.88;;
47513;SDS011;33951;51.988;5.910;2023-09-07T22:41:27;8.43;;;6.75;;
47513;SDS011;33951;51.988;5.910;2023-09-07T22:43:53;8.00;;;6.72;;
47513;SDS011;33951;51.988;5.910;2023-09-07T22:46:19;7.63;;;6.80;;
47513;SDS011;33951;51.988;5.910;2023-09-07T22:48:45;7.57;;;6.78;;
47513;SDS011;33951;51.988;5.910;2023-09-07T22:51:11;7.20;;;6.60;;
47513;SDS011;33951;51.988;5.910;2023-09-07T22:53:37;7.47;;;6.35;;
47513;SDS011;33951;51.988;5.910;2023-09-07T22:56:02;8.35;;;6.32;;
47513;SDS011;33951;51.988;5.910;2023-09-07T22:58:28;6.90;;;6.22;;
47513;SDS011;33951;51.988;5.910;2023-09-07T23:00:54;8.70;;;6.95;;
47513;SDS011;33951;51.988;5.910;2023-09-07T23:03:19;7.47;;;6.20;;
47513;SDS011;33951;51.988;5.910;2023-09-07T23:05:46;8.75;;;6.03;;
47513;SDS011;33951;51.988;5.910;2023-09-07T23:08:13;10.93;;;6.75;;
47513;SDS011;33951;51.988;5.910;2023-09-07T23:10:39;7.05;;;6.35;;
47513;SDS011;33951;51.988;5.910;2023-09-07T23:13:07;8.70;;;7.13;;
47513;SDS011;33951;51.988;5.910;2023-09-07T23:15:33;8.48;;;6.78;;
47513;SDS011;33951;51.988;5.910;2023-09-07T23:17:59;7.03;;;6.32;;
47513;SDS011;33951;51.988;5.910;2023-09-07T23:20:25;11.93;;;6.93;;
47513;SDS011;33951;51.988;5.910;2023-09-07T23:22:51;8.30;;;6.25;;
47513;SDS011;33951;51.988;5.910;2023-09-07T23:25:19;12.77;;;6.47;;
47513;SDS011;33951;51.988;5.910;2023-09-07T23:27:44;7.55;;;6.80;;
47513;SDS011;33951;51.988;5.910;2023-09-07T23:30:10;7.75;;;6.43;;
47513;SDS011;33951;51.988;5.910;2023-09-07T23:32:37;11.45;;;7.15;;
47513;SDS011;33951;51.988;5.910;2023-09-07T23:35:04;7.88;;;7.00;;
47513;SDS011;33951;51.988;5.910;2023-09-07T23:37:31;8.82;;;6.72;;
47513;SDS011;33951;51.988;5.910;2023-09-07T23:39:58;8.05;;;6.95;;
47513;SDS011;33951;51.988;5.910;2023-09-07T23:42:31;11.30;;;7.10;;
47513;SDS011;33951;51.988;5.910;2023-09-07T23:44:57;7.82;;;7.00;;
47513;SDS011;33951;51.988;5.910;2023-09-07T23:47:29;7.57;;;6.80;;
47513;SDS011;33951;51.988;5.910;2023-09-07T23:49:55;9.60;;;7.82;;
47513;SDS011;33951;51.988;5.910;2023-09-07T23:52:20;8.38;;;7.13;;
47513;SDS011;33951;51.988;5.910;2023-09-07T23:54:49;8.95;;;7.88;;
47513;SDS011;33951;51.988;5.910;2023-09-07T23:57:14;15.02;;;7.75;;
47513;SDS011;33951;51.988;5.910;2023-09-07T23:59:43;8.60;;;7.18;;
